createdAt,value
2023-02-16T00:01:25.569Z,63.10
2023-02-16T00:03:54.949Z,69.17
2023-02-16T00:06:22.839Z,60.00
2023-02-16T00:08:53.548Z,69.20
2023-02-16T00:11:40.678Z,68.73
2023-02-16T00:14:10.916Z,64.60
2023-02-16T00:16:39.094Z,64.70
2023-02-16T00:19:18.812Z,66.33
2023-02-16T00:21:46.717Z,65.33
2023-02-16T00:24:15.851Z,65.17
2023-02-16T00:26:44.310Z,61.63
2023-02-16T00:29:15.589Z,61.37
2023-02-16T00:31:43.347Z,68.67
2023-02-16T00:34:39.766Z,62.87
2023-02-16T00:37:09.637Z,71.30
2023-02-16T00:39:39.695Z,68.43
2023-02-16T00:42:11.339Z,67.53
2023-02-16T00:44:42.002Z,61.63
2023-02-16T00:47:18.201Z,68.93
2023-02-16T00:49:45.871Z,65.67
2023-02-16T00:52:31.263Z,66.50
2023-02-16T00:55:01.392Z,69.90
2023-02-16T00:57:33.971Z,67.70
2023-02-16T01:00:06.471Z,68.70
2023-02-16T01:02:34.183Z,67.53
2023-02-16T01:05:01.975Z,69.67
2023-02-16T01:07:46.916Z,72.23
2023-02-16T01:10:39.866Z,74.33
2023-02-16T01:13:07.519Z,78.97
2023-02-16T01:15:35.312Z,72.90
2023-02-16T01:18:03.098Z,71.83
2023-02-16T01:20:31.005Z,70.53
2023-02-16T01:22:58.774Z,76.70
2023-02-16T01:25:27.931Z,71.23
2023-02-16T01:27:55.658Z,68.47
2023-02-16T01:30:25.297Z,76.50
2023-02-16T01:32:53.569Z,70.30
2023-02-16T01:35:22.741Z,72.23
2023-02-16T01:37:51.028Z,72.27
2023-02-16T01:40:24.506Z,70.10
2023-02-16T01:42:56.107Z,72.37
2023-02-16T01:45:31.546Z,75.03
2023-02-16T01:48:03.708Z,72.40
2023-02-16T01:50:41.334Z,71.27
2023-02-16T01:53:15.842Z,76.50
2023-02-16T01:55:45.343Z,74.53
2023-02-16T01:58:20.273Z,71.33
2023-02-16T02:01:25.202Z,73.53
2023-02-16T02:04:10.533Z,74.97
2023-02-16T02:06:38.684Z,73.17
2023-02-16T02:09:10.001Z,77.90
2023-02-16T02:11:41.097Z,77.67
2023-02-16T02:14:13.086Z,69.87
2023-02-16T02:16:40.877Z,73.60
2023-02-16T02:19:08.749Z,74.53
2023-02-16T02:22:15.101Z,69.70
2023-02-16T02:25:05.173Z,73.40
2023-02-16T02:27:35.397Z,67.83
2023-02-16T02:30:20.351Z,70.57
2023-02-16T02:33:01.401Z,71.70
2023-02-16T02:35:37.337Z,68.27
2023-02-16T02:38:11.588Z,73.50
2023-02-16T02:40:49.748Z,71.20
2023-02-16T02:43:22.368Z,72.77
2023-02-16T02:45:53.473Z,72.13
2023-02-16T02:48:21.262Z,71.87
2023-02-16T02:51:09.470Z,71.97
2023-02-16T02:53:40.226Z,77.90
2023-02-16T02:56:26.703Z,72.70
2023-02-16T02:59:16.824Z,73.30
2023-02-16T03:01:48.332Z,67.13
2023-02-16T03:04:17.464Z,66.67
2023-02-16T03:06:47.989Z,70.50
2023-02-16T03:09:16.716Z,70.37
2023-02-16T03:12:03.037Z,76.70
2023-02-16T03:14:35.003Z,70.83
2023-02-16T03:17:24.065Z,69.97
2023-02-16T03:20:10.610Z,77.47
2023-02-16T03:22:56.564Z,69.67
2023-02-16T03:25:42.923Z,66.93
2023-02-16T03:28:29.363Z,76.07
2023-02-16T03:31:01.580Z,74.67
2023-02-16T03:33:30.167Z,76.40
2023-02-16T03:35:58.317Z,71.57
2023-02-16T03:38:26.269Z,68.83
2023-02-16T03:40:54.412Z,81.00
2023-02-16T03:43:25.868Z,74.60
2023-02-16T03:45:53.722Z,71.87
2023-02-16T03:48:23.080Z,70.70
2023-02-16T03:50:50.821Z,69.47
2023-02-16T03:53:19.404Z,72.50
2023-02-16T03:55:48.694Z,79.33
2023-02-16T03:58:17.989Z,78.30
2023-02-16T04:00:45.854Z,71.67
2023-02-16T04:03:13.673Z,71.23
2023-02-16T04:05:43.006Z,69.07
2023-02-16T04:08:11.443Z,69.03
2023-02-16T04:10:39.946Z,74.77
2023-02-16T04:13:06.908Z,74.37
2023-02-16T04:15:34.658Z,71.87
2023-02-16T04:18:02.335Z,71.13
2023-02-16T04:20:31.689Z,65.67
2023-02-16T04:23:01.017Z,74.87
2023-02-16T04:25:29.919Z,72.40
2023-02-16T04:27:57.716Z,67.53
2023-02-16T04:30:28.370Z,70.23
2023-02-16T04:32:56.784Z,67.73
2023-02-16T04:35:24.464Z,67.40
2023-02-16T04:37:52.192Z,72.13
2023-02-16T04:40:21.906Z,66.67
2023-02-16T04:42:49.601Z,63.10
2023-02-16T04:45:17.507Z,65.37
2023-02-16T04:47:45.187Z,61.70
2023-02-16T04:50:13.414Z,64.40
2023-02-16T04:52:41.497Z,67.80
2023-02-16T04:55:10.733Z,72.10
2023-02-16T04:57:40.314Z,71.33
2023-02-16T05:00:09.851Z,68.23
2023-02-16T05:02:37.573Z,67.47
2023-02-16T05:05:05.340Z,62.83
2023-02-16T05:07:33.000Z,66.47
2023-02-16T05:10:00.702Z,67.10
2023-02-16T05:12:54.080Z,67.27
2023-02-16T05:15:23.150Z,67.83
2023-02-16T05:17:50.804Z,64.80
2023-02-16T05:20:18.597Z,66.23
2023-02-16T05:22:46.572Z,66.23
2023-02-16T05:25:14.435Z,69.27
2023-02-16T05:27:42.095Z,67.03
2023-02-16T05:30:10.916Z,60.43
2023-02-16T05:32:39.963Z,66.83
2023-02-16T05:35:07.824Z,63.63
2023-02-16T05:37:35.519Z,65.53
2023-02-16T05:40:03.506Z,69.30
2023-02-16T05:42:31.227Z,59.67
2023-02-16T05:44:58.949Z,61.77
2023-02-16T05:47:26.686Z,65.70
2023-02-16T05:49:55.799Z,68.23
2023-02-16T05:52:23.636Z,67.50
2023-02-16T05:54:51.392Z,62.10
2023-02-16T05:57:19.107Z,63.93
2023-02-16T05:59:46.769Z,62.70
2023-02-16T06:02:14.541Z,67.47
2023-02-16T06:04:42.226Z,64.93
2023-02-16T06:07:13.798Z,68.67
2023-02-16T06:09:42.450Z,65.17
2023-02-16T06:12:10.193Z,67.53
2023-02-16T06:14:37.836Z,71.00
2023-02-16T06:17:05.543Z,63.30
2023-02-16T06:19:33.203Z,66.00
2023-02-16T06:22:00.875Z,60.97
2023-02-16T06:24:29.929Z,66.73
2023-02-16T06:26:57.634Z,62.23
2023-02-16T06:29:25.515Z,64.00
2023-02-16T06:31:53.304Z,66.50
2023-02-16T06:34:21.196Z,72.67
2023-02-16T06:36:48.911Z,66.80
2023-02-16T06:39:16.664Z,66.33
2023-02-16T06:41:45.725Z,68.37
2023-02-16T06:44:15.294Z,67.93
2023-02-16T06:46:43.500Z,67.13
2023-02-16T06:49:13.193Z,66.97
2023-02-16T06:51:41.126Z,66.57
2023-02-16T06:54:08.877Z,65.87
2023-02-16T06:56:37.967Z,69.93
2023-02-16T06:59:07.329Z,65.70
2023-02-16T07:01:35.548Z,65.47
2023-02-16T07:04:03.330Z,64.63
2023-02-16T07:06:31.048Z,68.93
2023-02-16T07:08:58.876Z,69.47
2023-02-16T07:11:26.716Z,65.87
2023-02-16T07:13:54.362Z,65.87
2023-02-16T07:16:23.420Z,65.33
2023-02-16T07:18:51.423Z,62.43
2023-02-16T07:21:19.153Z,67.83
2023-02-16T07:23:46.904Z,68.33
2023-02-16T07:26:14.676Z,67.77
2023-02-16T07:28:42.331Z,70.80
2023-02-16T07:31:10.879Z,70.57
2023-02-16T07:33:40.594Z,66.50
2023-02-16T07:36:09.200Z,70.07
2023-02-16T07:38:37.616Z,65.20
2023-02-16T07:41:08.973Z,68.40
2023-02-16T07:43:37.406Z,63.30
2023-02-16T07:46:05.486Z,68.30
2023-02-16T07:48:33.246Z,66.90
2023-02-16T07:51:03.031Z,67.83
2023-02-16T07:53:30.999Z,71.77
2023-02-16T07:55:58.683Z,67.17
2023-02-16T07:58:29.141Z,66.67
2023-02-16T08:00:57.886Z,64.37
2023-02-16T08:03:25.828Z,69.20
2023-02-16T08:05:53.670Z,66.40
2023-02-16T08:08:22.715Z,90.40
2023-02-16T08:10:50.364Z,237.10
2023-02-16T08:13:17.991Z,172.63
2023-02-16T08:15:46.536Z,82.20
2023-02-16T08:18:15.216Z,83.83
2023-02-16T08:21:01.365Z,77.40
2023-02-16T08:23:32.073Z,71.97
2023-02-16T08:26:00.028Z,70.10
2023-02-16T08:28:29.064Z,66.33
2023-02-16T08:30:56.953Z,67.37
2023-02-16T08:33:25.087Z,69.73
2023-02-16T08:35:53.185Z,59.30
2023-02-16T08:38:21.010Z,65.17
2023-02-16T08:40:51.100Z,69.20
2023-02-16T08:43:18.876Z,58.37
2023-02-16T08:45:47.507Z,64.90
2023-02-16T08:48:15.322Z,62.13
2023-02-16T08:50:47.115Z,64.07
2023-02-16T08:53:15.362Z,60.00
2023-02-16T08:55:43.094Z,64.03
2023-02-16T08:58:12.199Z,65.70
2023-02-16T09:00:41.335Z,59.57
2023-02-16T09:03:09.056Z,63.10
2023-02-16T09:05:36.778Z,61.27
2023-02-16T09:08:04.558Z,64.10
2023-02-16T09:10:32.251Z,61.77
2023-02-16T09:12:59.941Z,60.57
2023-02-16T09:15:29.000Z,59.53
2023-02-16T09:17:57.115Z,56.67
2023-02-16T09:20:24.828Z,60.07
2023-02-16T09:22:52.559Z,51.20
2023-02-16T09:25:20.976Z,62.73
2023-02-16T09:27:49.535Z,58.40
2023-02-16T09:30:18.594Z,65.23
2023-02-16T09:32:47.705Z,57.43
2023-02-16T09:35:15.797Z,53.30
2023-02-16T09:37:43.509Z,56.87
2023-02-16T09:40:14.526Z,60.77
2023-02-16T09:42:52.388Z,58.17
2023-02-16T09:45:21.552Z,62.77
2023-02-16T09:47:54.307Z,54.60
2023-02-16T09:50:38.612Z,58.70
2023-02-16T09:53:19.232Z,54.67
2023-02-16T09:55:58.097Z,54.30
2023-02-16T09:58:30.397Z,55.40
2023-02-16T10:01:03.694Z,49.63
2023-02-16T10:03:49.254Z,56.83
2023-02-16T10:06:43.005Z,59.83
2023-02-16T10:09:12.723Z,62.77
2023-02-16T10:11:48.620Z,56.77
2023-02-16T10:14:23.303Z,57.67
2023-02-16T10:16:54.658Z,57.60
2023-02-16T10:19:26.896Z,58.63
2023-02-16T10:21:57.768Z,52.90
2023-02-16T10:24:26.169Z,55.43
2023-02-16T10:26:59.292Z,54.23
2023-02-16T10:29:27.608Z,57.30
2023-02-16T10:32:05.460Z,60.47
2023-02-16T10:34:43.902Z,55.03
2023-02-16T10:37:31.288Z,62.03
2023-02-16T10:40:14.771Z,59.77
2023-02-16T10:42:49.874Z,61.03
2023-02-16T10:45:22.872Z,63.17
2023-02-16T10:47:51.383Z,62.17
2023-02-16T10:50:24.255Z,62.10
2023-02-16T10:52:54.003Z,58.47
2023-02-16T10:55:21.930Z,62.90
2023-02-16T10:57:56.001Z,59.47
2023-02-16T11:00:29.401Z,62.63
2023-02-16T11:02:57.327Z,62.87
2023-02-16T11:05:44.712Z,64.83
2023-02-16T11:08:13.770Z,60.50
2023-02-16T11:10:46.151Z,65.43
2023-02-16T11:13:31.320Z,59.40
2023-02-16T11:16:01.840Z,57.53
2023-02-16T11:18:36.322Z,59.57
2023-02-16T11:21:06.609Z,65.43
2023-02-16T11:23:36.235Z,59.97
2023-02-16T11:26:06.347Z,63.77
2023-02-16T11:28:36.361Z,61.03
2023-02-16T11:31:14.881Z,62.33
2023-02-16T11:33:43.393Z,60.97
2023-02-16T11:36:32.459Z,61.00
2023-02-16T11:39:02.641Z,71.37
2023-02-16T11:41:33.509Z,67.93
2023-02-16T11:44:02.864Z,59.73
2023-02-16T11:46:39.348Z,63.17
2023-02-16T11:49:24.004Z,67.13
2023-02-16T11:51:53.068Z,79.27
2023-02-16T11:54:21.043Z,79.50
2023-02-16T11:57:03.202Z,71.57
2023-02-16T11:59:35.972Z,69.70
2023-02-16T12:02:24.341Z,86.40
2023-02-16T12:05:00.694Z,77.63
2023-02-16T12:07:36.743Z,75.23
2023-02-16T12:10:09.650Z,76.67
2023-02-16T12:12:43.191Z,76.87
2023-02-16T12:15:21.191Z,81.67
2023-02-16T12:18:01.185Z,77.10
2023-02-16T12:20:46.825Z,81.83
2023-02-16T12:23:30.172Z,84.27
2023-02-16T12:26:10.229Z,86.63
2023-02-16T12:28:43.791Z,79.23
2023-02-16T12:31:22.003Z,80.83
2023-02-16T12:33:54.620Z,76.67
2023-02-16T12:36:33.896Z,81.80
2023-02-16T12:39:12.166Z,79.57
2023-02-16T12:41:48.881Z,83.77
2023-02-16T12:44:19.660Z,84.00
2023-02-16T12:46:48.870Z,86.63
2023-02-16T12:49:21.105Z,77.10
2023-02-16T12:51:51.510Z,81.70
2023-02-16T12:54:25.204Z,75.27
2023-02-16T12:56:58.829Z,81.33
2023-02-16T12:59:33.467Z,81.30
2023-02-16T13:02:01.791Z,80.97
2023-02-16T13:04:43.853Z,84.23
2023-02-16T13:07:18.159Z,82.57
2023-02-16T13:09:53.302Z,80.07
2023-02-16T13:12:28.609Z,83.30
2023-02-16T13:15:03.244Z,87.40
2023-02-16T13:17:34.382Z,82.77
2023-02-16T13:20:03.546Z,85.20
2023-02-16T13:22:52.753Z,82.03
2023-02-16T13:25:38.051Z,81.87
2023-02-16T13:28:16.576Z,76.33
2023-02-16T13:31:02.083Z,78.57
2023-02-16T13:33:42.911Z,81.43
2023-02-16T13:36:23.307Z,80.10
2023-02-16T13:39:12.674Z,77.03
2023-02-16T13:41:59.351Z,77.47
2023-02-16T13:44:32.865Z,74.70
2023-02-16T13:47:00.666Z,76.07
2023-02-16T13:49:32.355Z,70.17
2023-02-16T13:52:00.879Z,70.17
2023-02-16T13:54:30.922Z,73.97
2023-02-16T13:57:03.618Z,71.70
2023-02-16T14:00:02.057Z,75.40
2023-02-16T14:02:57.406Z,76.30
2023-02-16T14:05:32.128Z,69.03
2023-02-16T14:08:18.985Z,70.53
2023-02-16T14:11:05.056Z,69.63
2023-02-16T14:13:36.113Z,78.90
2023-02-16T14:16:09.001Z,76.00
2023-02-16T14:18:42.766Z,75.07
2023-02-16T14:21:19.920Z,74.37
2023-02-16T14:23:55.410Z,75.57
2023-02-16T14:26:23.220Z,72.57
2023-02-16T14:29:09.501Z,66.43
2023-02-16T14:31:44.459Z,65.20
2023-02-16T14:34:18.558Z,66.03
2023-02-16T14:37:29.608Z,68.23
2023-02-16T14:40:08.605Z,71.70
2023-02-16T14:42:37.195Z,63.13
2023-02-16T14:45:46.219Z,64.97
2023-02-16T14:48:27.579Z,60.50
2023-02-16T14:51:11.959Z,58.97
2023-02-16T14:54:15.863Z,60.63
2023-02-16T14:56:45.817Z,63.73
2023-02-16T14:59:22.116Z,58.93
2023-02-16T15:01:51.610Z,59.67
2023-02-16T15:04:29.241Z,54.80
2023-02-16T15:06:57.635Z,58.63
2023-02-16T15:09:27.783Z,55.90
2023-02-16T15:12:14.568Z,58.13
2023-02-16T15:14:45.098Z,61.37
2023-02-16T15:17:29.572Z,56.83
2023-02-16T15:20:04.442Z,55.90
2023-02-16T15:22:32.531Z,55.33
2023-02-16T15:25:03.642Z,52.20
2023-02-16T15:27:32.999Z,57.83
2023-02-16T15:30:21.576Z,52.90
2023-02-16T15:32:56.506Z,53.00
2023-02-16T15:35:27.873Z,51.27
2023-02-16T15:38:08.036Z,53.33
2023-02-16T15:40:36.526Z,54.03
2023-02-16T15:43:10.865Z,53.60
2023-02-16T15:45:39.190Z,59.20
2023-02-16T15:48:16.113Z,53.47
2023-02-16T15:50:44.262Z,52.80
2023-02-16T15:53:13.696Z,57.90
2023-02-16T15:55:45.666Z,55.07
2023-02-16T15:58:15.154Z,60.53
2023-02-16T16:00:44.987Z,60.50
2023-02-16T16:03:17.039Z,61.27
2023-02-16T16:05:55.591Z,63.37
2023-02-16T16:08:24.157Z,53.33
2023-02-16T16:10:51.948Z,51.37
2023-02-16T16:13:22.273Z,55.07
2023-02-16T16:15:51.325Z,55.60
2023-02-16T16:18:44.599Z,59.13
2023-02-16T16:21:15.485Z,52.50
2023-02-16T16:23:54.604Z,54.17
2023-02-16T16:26:23.566Z,57.30
2023-02-16T16:28:51.911Z,55.57
2023-02-16T16:31:42.207Z,51.93
2023-02-16T16:34:13.593Z,61.57
2023-02-16T16:36:46.968Z,56.43
2023-02-16T16:39:23.633Z,54.97
2023-02-16T16:42:24.097Z,50.67
2023-02-16T16:44:58.366Z,60.60
2023-02-16T16:47:29.010Z,56.03
2023-02-16T16:50:00.441Z,54.40
2023-02-16T16:52:33.695Z,53.50
2023-02-16T16:55:01.639Z,64.07
2023-02-16T16:57:30.279Z,55.70
2023-02-16T16:59:58.699Z,63.13
2023-02-16T17:02:26.328Z,53.07
2023-02-16T17:04:54.040Z,58.03
2023-02-16T17:07:23.067Z,57.37
2023-02-16T17:09:50.687Z,60.07
2023-02-16T17:12:18.519Z,55.23
2023-02-16T17:14:46.164Z,54.57
2023-02-16T17:17:14.072Z,59.20
2023-02-16T17:19:42.482Z,60.23
2023-02-16T17:22:13.274Z,57.83
2023-02-16T17:24:42.316Z,64.50
2023-02-16T17:27:10.470Z,55.03
2023-02-16T17:29:38.233Z,51.33
2023-02-16T17:32:06.471Z,52.83
2023-02-16T17:34:34.261Z,55.40
2023-02-16T17:37:03.716Z,51.53
2023-02-16T17:39:32.145Z,52.67
2023-02-16T17:42:01.215Z,59.90
2023-02-16T17:44:28.932Z,58.30
2023-02-16T17:46:56.627Z,55.17
2023-02-16T17:49:24.330Z,59.30
2023-02-16T17:51:52.009Z,55.07
2023-02-16T17:54:19.675Z,52.30
2023-02-16T17:56:47.559Z,60.67
2023-02-16T17:59:16.743Z,56.47
2023-02-16T18:01:44.751Z,61.43
2023-02-16T18:04:12.499Z,53.80
2023-02-16T18:06:40.229Z,60.13
2023-02-16T18:09:08.075Z,63.13
2023-02-16T18:11:35.818Z,57.70
2023-02-16T18:14:03.454Z,60.83
2023-02-16T18:16:32.623Z,64.83
2023-02-16T18:19:01.248Z,65.77
2023-02-16T18:21:29.022Z,61.40
2023-02-16T18:23:56.765Z,64.03
2023-02-16T18:26:24.531Z,55.77
2023-02-16T18:28:52.225Z,57.83
2023-02-16T18:31:20.564Z,62.07
2023-02-16T18:33:49.717Z,58.80
2023-02-16T18:36:17.431Z,65.57
2023-02-16T18:38:45.212Z,64.27
2023-02-16T18:41:14.125Z,65.17
2023-02-16T18:43:41.882Z,66.40
2023-02-16T18:46:10.333Z,62.53
2023-02-16T18:48:38.250Z,69.87
2023-02-16T18:51:08.432Z,70.70
2023-02-16T18:53:37.639Z,68.97
2023-02-16T18:56:06.209Z,66.83
2023-02-16T18:58:34.135Z,63.13
2023-02-16T19:01:01.863Z,70.77
2023-02-16T19:03:30.380Z,64.87
2023-02-16T19:05:58.183Z,73.03
2023-02-16T19:08:27.225Z,69.90
2023-02-16T19:10:54.925Z,65.23
2023-02-16T19:13:23.036Z,77.00
2023-02-16T19:15:50.831Z,70.23
2023-02-16T19:18:18.574Z,77.00
2023-02-16T19:20:46.280Z,68.97
2023-02-16T19:23:14.025Z,74.83
2023-02-16T19:25:43.411Z,76.27
2023-02-16T19:28:11.182Z,72.20
2023-02-16T19:30:38.959Z,74.97
2023-02-16T19:33:06.713Z,80.27
2023-02-16T19:35:34.473Z,80.67
2023-02-16T19:38:02.222Z,76.77
2023-02-16T19:40:29.953Z,77.90
2023-02-16T19:42:59.023Z,84.13
2023-02-16T19:45:26.818Z,83.10
2023-02-16T19:47:54.526Z,84.87
2023-02-16T19:50:22.257Z,80.03
2023-02-16T19:52:49.916Z,79.63
2023-02-16T19:55:17.731Z,79.50
2023-02-16T19:57:45.457Z,78.27
2023-02-16T20:00:15.463Z,78.63
2023-02-16T20:02:43.183Z,77.83
2023-02-16T20:05:11.259Z,85.63
2023-02-16T20:07:38.932Z,80.60
2023-02-16T20:10:07.986Z,86.17
2023-02-16T20:12:35.777Z,76.60
2023-02-16T20:15:03.456Z,80.20
2023-02-16T20:17:32.592Z,86.33
2023-02-16T20:20:00.825Z,76.73
2023-02-16T20:22:28.776Z,75.97
2023-02-16T20:24:56.458Z,80.87
2023-02-16T20:27:24.203Z,80.23
2023-02-16T20:29:51.898Z,85.80
2023-02-16T20:32:19.757Z,92.27
2023-02-16T20:34:49.161Z,79.67
2023-02-16T20:37:17.084Z,80.40
2023-02-16T20:39:44.764Z,77.40
2023-02-16T20:42:12.644Z,89.17
2023-02-16T20:44:40.697Z,82.70
2023-02-16T20:47:10.172Z,81.37
2023-02-16T20:49:37.860Z,84.40
2023-02-16T20:52:09.478Z,80.43
2023-02-16T20:54:37.227Z,78.30
2023-02-16T20:57:06.254Z,77.23
2023-02-16T20:59:34.772Z,75.80
2023-02-16T21:02:04.736Z,76.27
2023-02-16T21:04:32.652Z,77.63
2023-02-16T21:07:00.324Z,77.97
2023-02-16T21:09:29.375Z,76.77
2023-02-16T21:11:57.124Z,78.37
2023-02-16T21:14:24.848Z,75.90
2023-02-16T21:16:52.789Z,75.73
2023-02-16T21:19:23.384Z,73.70
2023-02-16T21:21:51.837Z,75.07
2023-02-16T21:24:19.575Z,77.73
2023-02-16T21:26:48.773Z,73.37
2023-02-16T21:29:16.533Z,73.40
2023-02-16T21:31:44.543Z,80.97
2023-02-16T21:34:12.345Z,71.90
2023-02-16T21:36:40.072Z,75.00
2023-02-16T21:39:07.839Z,71.17
2023-02-16T21:41:34.581Z,70.83
2023-02-16T21:44:05.330Z,73.67
2023-02-16T21:46:35.096Z,69.97
2023-02-16T21:49:02.241Z,65.53
2023-02-16T21:51:31.520Z,71.20
2023-02-16T21:53:59.725Z,68.47
2023-02-16T21:56:33.841Z,67.37
2023-02-16T21:59:03.593Z,63.57
2023-02-16T22:01:33.092Z,61.13
2023-02-16T22:04:01.698Z,68.40
2023-02-16T22:06:32.300Z,57.53
2023-02-16T22:09:00.598Z,62.13
2023-02-16T22:11:28.370Z,58.80
2023-02-16T22:13:56.988Z,60.93
2023-02-16T22:16:27.251Z,62.23
2023-02-16T22:18:57.871Z,58.40
2023-02-16T22:21:26.087Z,60.87
2023-02-16T22:23:53.906Z,64.53
2023-02-16T22:26:23.661Z,60.13
2023-02-16T22:28:51.613Z,58.47
2023-02-16T22:31:19.477Z,60.77
2023-02-16T22:33:48.705Z,58.90
2023-02-16T22:36:16.782Z,59.47
2023-02-16T22:38:45.159Z,60.00
2023-02-16T22:41:13.544Z,61.87
2023-02-16T22:43:41.571Z,56.63
2023-02-16T22:46:13.698Z,61.57
2023-02-16T22:48:41.541Z,59.53
2023-02-16T22:51:13.458Z,62.40
2023-02-16T22:53:41.668Z,69.03
2023-02-16T22:56:11.093Z,64.40
2023-02-16T22:58:38.767Z,61.40
2023-02-16T23:01:12.161Z,61.10
2023-02-16T23:03:40.531Z,65.60
2023-02-16T23:06:14.658Z,66.07
2023-02-16T23:08:42.449Z,64.57
2023-02-16T23:11:10.157Z,59.17
2023-02-16T23:13:38.362Z,64.37
2023-02-16T23:16:07.755Z,73.37
2023-02-16T23:18:35.996Z,68.50
2023-02-16T23:21:08.130Z,68.37
2023-02-16T23:23:37.495Z,67.30
2023-02-16T23:26:07.034Z,63.77
2023-02-16T23:28:35.438Z,67.70
2023-02-16T23:31:03.341Z,67.00
2023-02-16T23:33:31.161Z,65.90
2023-02-16T23:35:59.223Z,67.90
2023-02-16T23:38:27.389Z,68.07
2023-02-16T23:41:01.430Z,69.87
2023-02-16T23:43:29.294Z,70.67
2023-02-16T23:45:57.426Z,71.50
2023-02-16T23:48:25.515Z,68.33
2023-02-16T23:50:54.063Z,72.60
2023-02-16T23:53:23.113Z,75.17
2023-02-16T23:55:59.614Z,70.03
2023-02-16T23:58:28.704Z,74.73
